sensor_id;sensor_type;location;lat;lon;timestamp;pressure;altitude;pressure_sealevel;temperature;humidity
28630;BME280;15817;42.130;24.762;2023-07-28T00:01:54;99786.47;;;23.29;40.79
28630;BME280;15817;42.130;24.762;2023-07-28T00:04:20;99790.72;;;23.33;40.72
28630;BME280;15817;42.130;24.762;2023-07-28T00:06:45;99801.41;;;23.36;40.74
28630;BME280;15817;42.130;24.762;2023-07-28T00:09:11;99803.06;;;23.38;40.68
28630;BME280;15817;42.130;24.762;2023-07-28T00:11:37;99796.25;;;23.31;40.80
28630;BME280;15817;42.130;24.762;2023-07-28T00:14:03;99793.81;;;23.27;40.39
28630;BME280;15817;42.130;24.762;2023-07-28T00:16:29;99794.06;;;23.22;40.77
28630;BME280;15817;42.130;24.762;2023-07-28T00:19:04;99802.31;;;23.21;41.02
28630;BME280;15817;42.130;24.762;2023-07-28T00:21:29;99787.44;;;23.12;40.75
28630;BME280;15817;42.130;24.762;2023-07-28T00:24:01;99795.59;;;23.12;40.87
28630;BME280;15817;42.130;24.762;2023-07-28T00:26:27;99795.00;;;23.07;41.12
28630;BME280;15817;42.130;24.762;2023-07-28T00:28:53;99803.06;;;22.93;41.28
28630;BME280;15817;42.130;24.762;2023-07-28T00:31:18;99795.78;;;22.93;41.39
28630;BME280;15817;42.130;24.762;2023-07-28T00:33:46;99792.13;;;22.94;41.03
28630;BME280;15817;42.130;24.762;2023-07-28T00:36:11;99787.91;;;23.04;40.87
28630;BME280;15817;42.130;24.762;2023-07-28T00:38:40;99794.38;;;23.02;40.91
28630;BME280;15817;42.130;24.762;2023-07-28T00:41:06;99785.91;;;22.92;41.03
28630;BME280;15817;42.130;24.762;2023-07-28T00:43:32;99790.47;;;22.92;41.21
28630;BME280;15817;42.130;24.762;2023-07-28T00:45:58;99773.56;;;22.87;40.95
28630;BME280;15817;42.130;24.762;2023-07-28T00:48:27;99782.22;;;22.93;40.95
28630;BME280;15817;42.130;24.762;2023-07-28T00:50:53;99789.75;;;22.88;40.94
28630;BME280;15817;42.130;24.762;2023-07-28T00:53:23;99784.59;;;22.84;41.21
28630;BME280;15817;42.130;24.762;2023-07-28T00:55:53;99789.75;;;22.88;40.90
28630;BME280;15817;42.130;24.762;2023-07-28T00:58:19;99794.22;;;22.89;41.34
28630;BME280;15817;42.130;24.762;2023-07-28T01:00:47;99791.41;;;22.91;41.26
28630;BME280;15817;42.130;24.762;2023-07-28T01:03:15;99789.75;;;22.88;41.13
28630;BME280;15817;42.130;24.762;2023-07-28T01:05:55;99796.22;;;22.86;41.61
28630;BME280;15817;42.130;24.762;2023-07-28T01:10:59;99791.94;;;22.82;41.80
28630;BME280;15817;42.130;24.762;2023-07-28T01:13:25;99779.66;;;22.74;41.54
28630;BME280;15817;42.130;24.762;2023-07-28T01:15:57;99783.44;;;22.72;42.00
28630;BME280;15817;42.130;24.762;2023-07-28T01:18:29;99787.13;;;22.71;42.21
28630;BME280;15817;42.130;24.762;2023-07-28T01:21:01;99779.22;;;22.66;42.22
28630;BME280;15817;42.130;24.762;2023-07-28T01:26:34;99777.56;;;22.64;42.47
28630;BME280;15817;42.130;24.762;2023-07-28T01:29:04;99786.66;;;22.63;42.50
28630;BME280;15817;42.130;24.762;2023-07-28T01:31:31;99787.44;;;22.65;42.78
28630;BME280;15817;42.130;24.762;2023-07-28T01:33:57;99787.44;;;22.65;42.78
28630;BME280;15817;42.130;24.762;2023-07-28T01:36:28;99788.84;;;22.56;42.75
28630;BME280;15817;42.130;24.762;2023-07-28T01:38:54;99794.09;;;22.59;42.76
28630;BME280;15817;42.130;24.762;2023-07-28T01:41:20;99787.25;;;22.52;43.07
28630;BME280;15817;42.130;24.762;2023-07-28T01:43:50;99793.47;;;22.54;43.06
28630;BME280;15817;42.130;24.762;2023-07-28T01:46:17;99797.06;;;22.55;43.17
28630;BME280;15817;42.130;24.762;2023-07-28T01:48:43;99791.81;;;22.52;42.88
28630;BME280;15817;42.130;24.762;2023-07-28T01:51:09;99797.84;;;22.57;43.07
28630;BME280;15817;42.130;24.762;2023-07-28T01:53:34;99792.75;;;22.51;43.08
28630;BME280;15817;42.130;24.762;2023-07-28T01:56:00;99792.16;;;22.46;43.33
28630;BME280;15817;42.130;24.762;2023-07-28T01:58:26;99795.03;;;22.43;43.40
28630;BME280;15817;42.130;24.762;2023-07-28T02:00:52;99795.03;;;22.43;43.20
28630;BME280;15817;42.130;24.762;2023-07-28T02:03:18;99792.41;;;22.41;43.34
28630;BME280;15817;42.130;24.762;2023-07-28T02:05:44;99812.09;;;22.45;43.43
28630;BME280;15817;42.130;24.762;2023-07-28T02:08:10;99802.72;;;22.34;43.58
28630;BME280;15817;42.130;24.762;2023-07-28T02:10:36;99799.94;;;22.36;43.37
28630;BME280;15817;42.130;24.762;2023-07-28T02:13:02;99806.63;;;22.29;43.44
28630;BME280;15817;42.130;24.762;2023-07-28T02:15:28;99818.69;;;22.23;43.47
28630;BME280;15817;42.130;24.762;2023-07-28T02:17:54;99808.09;;;22.19;43.64
28630;BME280;15817;42.130;24.762;2023-07-28T02:20:20;99806.91;;;22.24;43.75
28630;BME280;15817;42.130;24.762;2023-07-28T02:22:46;99809.78;;;22.21;43.61
28630;BME280;15817;42.130;24.762;2023-07-28T02:25:12;99816.06;;;22.22;44.07
28630;BME280;15817;42.130;24.762;2023-07-28T02:27:38;99815.53;;;22.15;43.64
28630;BME280;15817;42.130;24.762;2023-07-28T02:30:05;99816.09;;;22.04;43.79
28630;BME280;15817;42.130;24.762;2023-07-28T02:32:32;99824.84;;;22.10;44.19
28630;BME280;15817;42.130;24.762;2023-07-28T02:34:58;99807.28;;;22.01;44.40
28630;BME280;15817;42.130;24.762;2023-07-28T02:37:24;99809.03;;;22.02;44.36
28630;BME280;15817;42.130;24.762;2023-07-28T02:39:50;99814.44;;;22.02;44.55
28630;BME280;15817;42.130;24.762;2023-07-28T02:42:16;99805.53;;;22.00;44.60
28630;BME280;15817;42.130;24.762;2023-07-28T02:44:42;99802.06;;;21.96;44.55
28630;BME280;15817;42.130;24.762;2023-07-28T02:47:14;99810.19;;;21.96;44.62
28630;BME280;15817;42.130;24.762;2023-07-28T02:49:41;99815.75;;;21.93;44.75
28630;BME280;15817;42.130;24.762;2023-07-28T02:52:08;99810.53;;;21.90;44.84
28630;BME280;15817;42.130;24.762;2023-07-28T02:54:34;99817.78;;;21.90;44.93
28630;BME280;15817;42.130;24.762;2023-07-28T02:57:00;99814.34;;;21.86;45.04
28630;BME280;15817;42.130;24.762;2023-07-28T02:59:26;99817.84;;;21.88;45.14
28630;BME280;15817;42.130;24.762;2023-07-28T03:01:52;99813.06;;;21.76;45.30
28630;BME280;15817;42.130;24.762;2023-07-28T03:04:19;99811.47;;;21.72;45.01
28630;BME280;15817;42.130;24.762;2023-07-28T03:07:11;99818.72;;;21.72;45.13
28630;BME280;15817;42.130;24.762;2023-07-28T03:09:38;99816.75;;;21.75;45.15
28630;BME280;15817;42.130;24.762;2023-07-28T03:12:05;99815.88;;;21.75;45.29
28630;BME280;15817;42.130;24.762;2023-07-28T03:14:34;99826.03;;;21.69;45.19
28630;BME280;15817;42.130;24.762;2023-07-28T03:17:07;99825.56;;;21.61;45.29
28630;BME280;15817;42.130;24.762;2023-07-28T03:19:33;99829.56;;;21.54;45.25
28630;BME280;15817;42.130;24.762;2023-07-28T03:22:02;99830.44;;;21.55;45.16
28630;BME280;15817;42.130;24.762;2023-07-28T03:24:31;99835.59;;;21.59;45.23
28630;BME280;15817;42.130;24.762;2023-07-28T03:26:56;99834.84;;;21.57;45.04
28630;BME280;15817;42.130;24.762;2023-07-28T03:29:22;99835.69;;;21.58;45.09
28630;BME280;15817;42.130;24.762;2023-07-28T03:31:49;99827.81;;;21.53;45.31
28630;BME280;15817;42.130;24.762;2023-07-28T03:34:16;99844.78;;;21.57;45.30
28630;BME280;15817;42.130;24.762;2023-07-28T03:36:42;99842.06;;;21.57;45.30
28630;BME280;15817;42.130;24.762;2023-07-28T03:39:08;99855.34;;;21.61;45.27
28630;BME280;15817;42.130;24.762;2023-07-28T03:41:34;99856.22;;;21.62;45.33
28630;BME280;15817;42.130;24.762;2023-07-28T03:44:03;99854.81;;;21.55;45.23
28630;BME280;15817;42.130;24.762;2023-07-28T03:46:29;99860.13;;;21.56;45.13
28630;BME280;15817;42.130;24.762;2023-07-28T03:48:55;99856.56;;;21.56;45.72
28630;BME280;15817;42.130;24.762;2023-07-28T03:51:23;99868.16;;;21.58;45.33
28630;BME280;15817;42.130;24.762;2023-07-28T03:53:53;99866.50;;;21.55;45.83
28630;BME280;15817;42.130;24.762;2023-07-28T03:56:19;99869.44;;;21.51;45.87
28630;BME280;15817;42.130;24.762;2023-07-28T03:58:45;99871.91;;;21.55;48.04
28630;BME280;15817;42.130;24.762;2023-07-28T04:01:11;99875.19;;;21.62;48.85
28630;BME280;15817;42.130;24.762;2023-07-28T04:03:37;99879.34;;;21.69;49.22
28630;BME280;15817;42.130;24.762;2023-07-28T04:06:10;99871.59;;;21.61;48.13
28630;BME280;15817;42.130;24.762;2023-07-28T04:08:38;99872.63;;;21.59;48.57
28630;BME280;15817;42.130;24.762;2023-07-28T04:11:04;99868.59;;;21.67;50.70
28630;BME280;15817;42.130;24.762;2023-07-28T04:13:30;99879.66;;;21.80;51.62
28630;BME280;15817;42.130;24.762;2023-07-28T04:15:56;99880.69;;;21.78;49.24
28630;BME280;15817;42.130;24.762;2023-07-28T04:18:23;99885.84;;;21.65;47.94
28630;BME280;15817;42.130;24.762;2023-07-28T04:20:49;99884.19;;;21.62;49.22
28630;BME280;15817;42.130;24.762;2023-07-28T04:23:15;99892.44;;;21.59;47.03
28630;BME280;15817;42.130;24.762;2023-07-28T04:25:48;99880.34;;;21.49;46.73
28630;BME280;15817;42.130;24.762;2023-07-28T04:28:14;99881.22;;;21.50;47.50
28630;BME280;15817;42.130;24.762;2023-07-28T04:30:47;99884.31;;;21.42;48.66
28630;BME280;15817;42.130;24.762;2023-07-28T04:33:35;99891.69;;;21.39;48.58
28630;BME280;15817;42.130;24.762;2023-07-28T04:36:23;99889.94;;;21.38;47.96
28630;BME280;15817;42.130;24.762;2023-07-28T04:39:05;99888.38;;;21.34;47.81
28630;BME280;15817;42.130;24.762;2023-07-28T04:41:54;99891.78;;;21.37;48.97
28630;BME280;15817;42.130;24.762;2023-07-28T04:44:37;99893.91;;;21.30;50.39
28630;BME280;15817;42.130;24.762;2023-07-28T04:47:05;99883.09;;;21.30;49.16
28630;BME280;15817;42.130;24.762;2023-07-28T04:49:37;99889.53;;;21.28;49.85
28630;BME280;15817;42.130;24.762;2023-07-28T04:52:32;99892.94;;;21.13;49.35
28630;BME280;15817;42.130;24.762;2023-07-28T04:55:22;99893.13;;;21.10;51.34
28630;BME280;15817;42.130;24.762;2023-07-28T04:57:51;99896.03;;;21.05;52.47
28630;BME280;15817;42.130;24.762;2023-07-28T05:00:38;99905.97;;;21.05;52.54
28630;BME280;15817;42.130;24.762;2023-07-28T05:03:07;99897.13;;;21.01;52.15
28630;BME280;15817;42.130;24.762;2023-07-28T05:05:43;99903.66;;;20.97;52.74
28630;BME280;15817;42.130;24.762;2023-07-28T05:08:16;99904.09;;;20.88;53.42
28630;BME280;15817;42.130;24.762;2023-07-28T05:11:38;99901.66;;;21.01;53.52
28630;BME280;15817;42.130;24.762;2023-07-28T05:14:43;99912.31;;;21.04;52.37
28630;BME280;15817;42.130;24.762;2023-07-28T05:17:40;99912.56;;;20.99;52.90
28630;BME280;15817;42.130;24.762;2023-07-28T05:20:34;99913.16;;;20.87;52.57
28630;BME280;15817;42.130;24.762;2023-07-28T05:23:10;99912.69;;;20.96;54.13
28630;BME280;15817;42.130;24.762;2023-07-28T05:25:44;99920.94;;;21.12;52.90
28630;BME280;15817;42.130;24.762;2023-07-28T05:28:10;99913.00;;;21.09;52.82
28630;BME280;15817;42.130;24.762;2023-07-28T05:30:53;99915.69;;;21.09;52.21
28630;BME280;15817;42.130;24.762;2023-07-28T05:33:28;99914.00;;;21.06;51.93
28630;BME280;15817;42.130;24.762;2023-07-28T05:36:05;99912.53;;;21.18;52.11
28630;BME280;15817;42.130;24.762;2023-07-28T05:38:32;99918.41;;;21.27;52.19
28630;BME280;15817;42.130;24.762;2023-07-28T05:41:19;99925.50;;;21.30;51.41
28630;BME280;15817;42.130;24.762;2023-07-28T05:44:01;99919.34;;;21.26;50.91
28630;BME280;15817;42.130;24.762;2023-07-28T05:46:30;99917.59;;;21.25;50.93
28630;BME280;15817;42.130;24.762;2023-07-28T05:49:02;99914.38;;;21.36;50.38
28630;BME280;15817;42.130;24.762;2023-07-28T05:51:34;99913.19;;;21.42;50.30
28630;BME280;15817;42.130;24.762;2023-07-28T05:54:00;99925.72;;;21.44;48.91
28630;BME280;15817;42.130;24.762;2023-07-28T05:56:36;99927.97;;;21.53;49.60
28630;BME280;15817;42.130;24.762;2023-07-28T05:59:09;99915.22;;;21.55;50.15
28630;BME280;15817;42.130;24.762;2023-07-28T06:01:35;99928.28;;;21.64;50.90
28630;BME280;15817;42.130;24.762;2023-07-28T06:04:20;99915.50;;;21.68;49.86
28630;BME280;15817;42.130;24.762;2023-07-28T06:06:49;99923.50;;;21.69;49.90
28630;BME280;15817;42.130;24.762;2023-07-28T06:09:16;99918.97;;;21.70;52.33
28630;BME280;15817;42.130;24.762;2023-07-28T06:11:43;99919.31;;;21.81;50.94
28630;BME280;15817;42.130;24.762;2023-07-28T06:14:12;99915.56;;;21.84;50.14
28630;BME280;15817;42.130;24.762;2023-07-28T06:16:44;99920.84;;;21.87;49.14
28630;BME280;15817;42.130;24.762;2023-07-28T06:19:13;99918.84;;;21.90;49.39
28630;BME280;15817;42.130;24.762;2023-07-28T06:21:43;99920.44;;;21.94;49.69
28630;BME280;15817;42.130;24.762;2023-07-28T06:24:09;99917.72;;;21.94;49.58
28630;BME280;15817;42.130;24.762;2023-07-28T06:26:40;99914.06;;;21.95;48.84
28630;BME280;15817;42.130;24.762;2023-07-28T06:29:11;99920.28;;;21.97;49.10
28630;BME280;15817;42.130;24.762;2023-07-28T06:31:37;99917.53;;;21.99;48.58
28630;BME280;15817;42.130;24.762;2023-07-28T06:34:03;99915.81;;;21.96;48.16
28630;BME280;15817;42.130;24.762;2023-07-28T06:36:35;99914.66;;;22.02;48.41
28630;BME280;15817;42.130;24.762;2023-07-28T06:39:05;99906.69;;;21.99;48.22
28630;BME280;15817;42.130;24.762;2023-07-28T06:41:36;99896.72;;;21.99;49.40
28630;BME280;15817;42.130;24.762;2023-07-28T06:44:07;99898.22;;;22.05;49.55
28630;BME280;15817;42.130;24.762;2023-07-28T06:46:37;99897.03;;;22.11;49.90
28630;BME280;15817;42.130;24.762;2023-07-28T06:49:06;99903.19;;;22.14;49.45
28630;BME280;15817;42.130;24.762;2023-07-28T06:51:32;99890.41;;;22.16;48.99
28630;BME280;15817;42.130;24.762;2023-07-28T06:54:05;99895.53;;;22.22;49.50
28630;BME280;15817;42.130;24.762;2023-07-28T06:56:38;99890.19;;;22.21;50.06
28630;BME280;15817;42.130;24.762;2023-07-28T06:59:05;99891.94;;;22.22;50.35
28630;BME280;15817;42.130;24.762;2023-07-28T07:01:36;99893.69;;;22.23;49.96
28630;BME280;15817;42.130;24.762;2023-07-28T07:04:02;99896.47;;;22.21;49.19
28630;BME280;15817;42.130;24.762;2023-07-28T07:06:40;99890.19;;;22.21;48.93
28630;BME280;15817;42.130;24.762;2023-07-28T07:09:09;99883.56;;;22.26;49.59
28630;BME280;15817;42.130;24.762;2023-07-28T07:11:43;99882.19;;;22.35;49.70
28630;BME280;15817;42.130;24.762;2023-07-28T07:14:17;99873.03;;;22.37;49.12
28630;BME280;15817;42.130;24.762;2023-07-28T07:16:49;99882.03;;;22.38;48.57
28630;BME280;15817;42.130;24.762;2023-07-28T07:19:31;99878.59;;;22.34;48.12
28630;BME280;15817;42.130;24.762;2023-07-28T07:22:25;99883.88;;;22.37;48.31
28630;BME280;15817;42.130;24.762;2023-07-28T07:24:51;99880.81;;;22.44;48.95
28630;BME280;15817;42.130;24.762;2023-07-28T07:27:36;99872.00;;;22.56;50.32
28630;BME280;15817;42.130;24.762;2023-07-28T07:30:11;99880.78;;;22.61;48.98
28630;BME280;15817;42.130;24.762;2023-07-28T07:32:37;99874.38;;;22.62;49.21
28630;BME280;15817;42.130;24.762;2023-07-28T07:35:03;99874.22;;;22.65;48.19
28630;BME280;15817;42.130;24.762;2023-07-28T07:37:45;99876.69;;;22.69;48.08
28630;BME280;15817;42.130;24.762;2023-07-28T07:40:19;99871.94;;;22.73;48.07
28630;BME280;15817;42.130;24.762;2023-07-28T07:42:54;99867.19;;;22.78;47.56
28630;BME280;15817;42.130;24.762;2023-07-28T07:45:23;99870.41;;;22.85;46.93
28630;BME280;15817;42.130;24.762;2023-07-28T07:47:51;99862.03;;;22.89;46.65
28630;BME280;15817;42.130;24.762;2023-07-28T07:50:17;99865.09;;;22.99;46.43
28630;BME280;15817;42.130;24.762;2023-07-28T07:52:47;99870.69;;;23.11;46.60
28630;BME280;15817;42.130;24.762;2023-07-28T07:55:34;99857.66;;;23.18;46.52
28630;BME280;15817;42.130;24.762;2023-07-28T07:58:02;99864.31;;;23.28;46.60
28630;BME280;15817;42.130;24.762;2023-07-28T08:00:29;99866.00;;;23.45;46.24
28630;BME280;15817;42.130;24.762;2023-07-28T08:03:04;99857.28;;;23.56;44.96
28630;BME280;15817;42.130;24.762;2023-07-28T08:05:50;99867.47;;;23.82;43.85
28630;BME280;15817;42.130;24.762;2023-07-28T08:08:27;99867.63;;;24.09;43.70
28630;BME280;15817;42.130;24.762;2023-07-28T08:11:07;99864.59;;;24.43;42.04
28630;BME280;15817;42.130;24.762;2023-07-28T08:13:36;99863.41;;;24.76;42.01
28630;BME280;15817;42.130;24.762;2023-07-28T08:16:03;99857.06;;;25.04;40.90
28630;BME280;15817;42.130;24.762;2023-07-28T08:18:42;99838.56;;;25.23;40.27
28630;BME280;15817;42.130;24.762;2023-07-28T08:21:40;99853.97;;;25.64;39.42
28630;BME280;15817;42.130;24.762;2023-07-28T08:24:21;99842.81;;;25.81;38.54
28630;BME280;15817;42.130;24.762;2023-07-28T08:26:49;99851.38;;;26.14;37.32
28630;BME280;15817;42.130;24.762;2023-07-28T08:29:38;99841.03;;;26.45;37.06
28630;BME280;15817;42.130;24.762;2023-07-28T08:32:12;99837.59;;;26.66;36.29
28630;BME280;15817;42.130;24.762;2023-07-28T08:34:38;99841.84;;;26.83;35.43
28630;BME280;15817;42.130;24.762;2023-07-28T08:37:04;99832.22;;;27.03;35.81
28630;BME280;15817;42.130;24.762;2023-07-28T08:39:33;99834.41;;;27.34;35.03
28630;BME280;15817;42.130;24.762;2023-07-28T08:42:03;99839.78;;;27.47;33.70
28630;BME280;15817;42.130;24.762;2023-07-28T08:44:35;99834.66;;;27.55;34.50
28630;BME280;15817;42.130;24.762;2023-07-28T08:47:02;99828.53;;;27.75;34.87
28630;BME280;15817;42.130;24.762;2023-07-28T08:49:34;99825.19;;;27.83;32.62
28630;BME280;15817;42.130;24.762;2023-07-28T08:52:22;99831.34;;;28.09;31.95
28630;BME280;15817;42.130;24.762;2023-07-28T08:57:53;99813.66;;;28.48;31.39
28630;BME280;15817;42.130;24.762;2023-07-28T09:00:27;99815.00;;;28.65;31.77
28630;BME280;15817;42.130;24.762;2023-07-28T09:03:09;99803.94;;;28.89;30.56
28630;BME280;15817;42.130;24.762;2023-07-28T09:05:39;99807.38;;;29.13;30.05
28630;BME280;15817;42.130;24.762;2023-07-28T09:08:28;99799.50;;;29.42;30.75
28630;BME280;15817;42.130;24.762;2023-07-28T09:11:28;99803.72;;;29.67;29.67
28630;BME280;15817;42.130;24.762;2023-07-28T09:14:00;99805.91;;;29.84;29.24
28630;BME280;15817;42.130;24.762;2023-07-28T09:16:47;99800.53;;;29.82;27.81
28630;BME280;15817;42.130;24.762;2023-07-28T09:19:13;99792.34;;;30.03;28.28
28630;BME280;15817;42.130;24.762;2023-07-28T09:22:01;99790.28;;;29.96;27.53
28630;BME280;15817;42.130;24.762;2023-07-28T09:24:33;99795.34;;;30.00;26.59
28630;BME280;15817;42.130;24.762;2023-07-28T09:27:12;99788.25;;;30.18;26.95
28630;BME280;15817;42.130;24.762;2023-07-28T09:29:57;99781.13;;;30.37;26.01
28630;BME280;15817;42.130;24.762;2023-07-28T09:32:32;99787.66;;;30.66;25.49
28630;BME280;15817;42.130;24.762;2023-07-28T09:37:53;99773.56;;;30.90;24.89
28630;BME280;15817;42.130;24.762;2023-07-28T09:40:21;99778.63;;;30.94;24.85
28630;BME280;15817;42.130;24.762;2023-07-28T09:42:49;99784.34;;;31.12;24.21
28630;BME280;15817;42.130;24.762;2023-07-28T09:45:16;99764.97;;;31.14;24.09
28630;BME280;15817;42.130;24.762;2023-07-28T09:47:44;99764.69;;;31.26;23.85
28630;BME280;15817;42.130;24.762;2023-07-28T09:50:15;99762.81;;;31.37;22.79
28630;BME280;15817;42.130;24.762;2023-07-28T09:52:49;99764.97;;;31.43;23.23
28630;BME280;15817;42.130;24.762;2023-07-28T09:55:17;99753.38;;;31.39;23.08
28630;BME280;15817;42.130;24.762;2023-07-28T09:57:51;99750.66;;;31.49;22.63
28630;BME280;15817;42.130;24.762;2023-07-28T10:00:22;99741.69;;;31.76;23.22
28630;BME280;15817;42.130;24.762;2023-07-28T10:02:48;99744.56;;;31.93;23.26
28630;BME280;15817;42.130;24.762;2023-07-28T10:05:15;99734.41;;;31.94;23.22
28630;BME280;15817;42.130;24.762;2023-07-28T10:07:42;99740.47;;;31.97;23.27
28630;BME280;15817;42.130;24.762;2023-07-28T10:10:11;99727.44;;;31.99;23.33
28630;BME280;15817;42.130;24.762;2023-07-28T10:12:45;99733.09;;;32.08;23.69
28630;BME280;15817;42.130;24.762;2023-07-28T10:15:13;99720.19;;;32.18;23.39
28630;BME280;15817;42.130;24.762;2023-07-28T10:17:44;99718.56;;;32.15;23.33
28630;BME280;15817;42.130;24.762;2023-07-28T10:20:29;99726.34;;;32.39;23.49
28630;BME280;15817;42.130;24.762;2023-07-28T10:23:03;99718.31;;;32.46;23.65
28630;BME280;15817;42.130;24.762;2023-07-28T10:25:33;99713.47;;;32.57;23.45
28630;BME280;15817;42.130;24.762;2023-07-28T10:27:59;99712.38;;;32.78;23.57
28630;BME280;15817;42.130;24.762;2023-07-28T10:30:25;99701.69;;;32.75;22.46
28630;BME280;15817;42.130;24.762;2023-07-28T10:32:51;99702.63;;;32.83;22.83
28630;BME280;15817;42.130;24.762;2023-07-28T10:35:25;99704.81;;;32.80;22.33
28630;BME280;15817;42.130;24.762;2023-07-28T10:37:50;99694.28;;;32.75;22.33
28630;BME280;15817;42.130;24.762;2023-07-28T10:40:32;99695.22;;;33.01;23.01
28630;BME280;15817;42.130;24.762;2023-07-28T10:43:00;99690.59;;;33.02;21.92
28630;BME280;15817;42.130;24.762;2023-07-28T10:45:30;99689.34;;;32.96;22.24
28630;BME280;15817;42.130;24.762;2023-07-28T10:47:57;99688.31;;;32.97;22.45
28630;BME280;15817;42.130;24.762;2023-07-28T10:50:29;99687.53;;;33.05;21.65
28630;BME280;15817;42.130;24.762;2023-07-28T10:52:56;99683.50;;;33.17;21.77
28630;BME280;15817;42.130;24.762;2023-07-28T10:55:24;99677.69;;;33.20;22.03
28630;BME280;15817;42.130;24.762;2023-07-28T10:57:51;99674.78;;;33.22;22.18
28630;BME280;15817;42.130;24.762;2023-07-28T11:00:21;99678.56;;;33.21;21.72
28630;BME280;15817;42.130;24.762;2023-07-28T11:02:49;99664.53;;;32.96;21.83
28630;BME280;15817;42.130;24.762;2023-07-28T11:05:26;99671.16;;;33.03;21.49
28630;BME280;15817;42.130;24.762;2023-07-28T11:08:01;99670.06;;;32.96;21.61
28630;BME280;15817;42.130;24.762;2023-07-28T11:10:31;99670.44;;;33.19;21.20
28630;BME280;15817;42.130;24.762;2023-07-28T11:13:01;99672.69;;;33.33;21.42
28630;BME280;15817;42.130;24.762;2023-07-28T11:15:27;99660.63;;;33.34;21.46
28630;BME280;15817;42.130;24.762;2023-07-28T11:17:54;99664.63;;;33.22;21.17
28630;BME280;15817;42.130;24.762;2023-07-28T11:20:24;99656.66;;;33.37;21.28
28630;BME280;15817;42.130;24.762;2023-07-28T11:22:55;99658.69;;;33.35;21.30
28630;BME280;15817;42.130;24.762;2023-07-28T11:25:22;99659.25;;;33.38;20.96
28630;BME280;15817;42.130;24.762;2023-07-28T11:27:49;99653.84;;;33.29;20.71
28630;BME280;15817;42.130;24.762;2023-07-28T11:30:17;99650.28;;;33.36;20.49
28630;BME280;15817;42.130;24.762;2023-07-28T11:32:45;99650.56;;;33.51;20.32
28630;BME280;15817;42.130;24.762;2023-07-28T11:35:13;99635.56;;;33.46;20.39
28630;BME280;15817;42.130;24.762;2023-07-28T11:37:40;99631.69;;;33.38;19.85
28630;BME280;15817;42.130;24.762;2023-07-28T11:40:07;99632.53;;;33.39;20.59
28630;BME280;15817;42.130;24.762;2023-07-28T11:42:55;99631.53;;;33.40;20.12
28630;BME280;15817;42.130;24.762;2023-07-28T11:45:21;99624.16;;;33.49;20.64
28630;BME280;15817;42.130;24.762;2023-07-28T11:48:07;99621.50;;;33.57;20.84
28630;BME280;15817;42.130;24.762;2023-07-28T11:50:40;99608.59;;;33.65;20.54
28630;BME280;15817;42.130;24.762;2023-07-28T11:53:08;99608.28;;;33.42;21.10
28630;BME280;15817;42.130;24.762;2023-07-28T11:55:35;99612.88;;;33.34;21.14
28630;BME280;15817;42.130;24.762;2023-07-28T11:58:06;99599.84;;;33.44;21.12
28630;BME280;15817;42.130;24.762;2023-07-28T12:00:35;99606.16;;;33.62;21.17
28630;BME280;15817;42.130;24.762;2023-07-28T12:03:11;99599.66;;;33.71;20.09
28630;BME280;15817;42.130;24.762;2023-07-28T12:05:42;99590.59;;;33.53;20.52
28630;BME280;15817;42.130;24.762;2023-07-28T12:08:36;99591.22;;;33.47;20.36
28630;BME280;15817;42.130;24.762;2023-07-28T12:11:02;99589.69;;;33.44;21.11
28630;BME280;15817;42.130;24.762;2023-07-28T12:13:28;99588.09;;;33.42;20.82
28630;BME280;15817;42.130;24.762;2023-07-28T12:15:54;99584.63;;;33.40;20.26
28630;BME280;15817;42.130;24.762;2023-07-28T12:18:20;99577.81;;;33.26;20.17
28630;BME280;15817;42.130;24.762;2023-07-28T12:20:51;99577.66;;;33.28;20.49
28630;BME280;15817;42.130;24.762;2023-07-28T12:23:19;99573.00;;;33.28;20.41
28630;BME280;15817;42.130;24.762;2023-07-28T12:25:46;99565.75;;;33.27;20.88
28630;BME280;15817;42.130;24.762;2023-07-28T12:28:12;99573.06;;;33.36;20.53
28630;BME280;15817;42.130;24.762;2023-07-28T12:30:38;99552.22;;;33.34;21.12
28630;BME280;15817;42.130;24.762;2023-07-28T12:33:05;99555.00;;;33.42;21.64
28630;BME280;15817;42.130;24.762;2023-07-28T12:35:33;99554.41;;;33.56;21.14
28630;BME280;15817;42.130;24.762;2023-07-28T12:38:04;99561.31;;;33.60;21.11
28630;BME280;15817;42.130;24.762;2023-07-28T12:40:32;99550.63;;;33.57;21.33
28630;BME280;15817;42.130;24.762;2023-07-28T12:42:59;99550.69;;;33.39;21.44
28630;BME280;15817;42.130;24.762;2023-07-28T12:45:30;99551.22;;;33.43;21.45
28630;BME280;15817;42.130;24.762;2023-07-28T12:47:56;99543.13;;;33.41;21.40
28630;BME280;15817;42.130;24.762;2023-07-28T12:50:23;99540.72;;;33.47;21.29
28630;BME280;15817;42.130;24.762;2023-07-28T12:52:49;99533.84;;;33.51;21.68
28630;BME280;15817;42.130;24.762;2023-07-28T12:55:16;99533.78;;;33.34;20.83
28630;BME280;15817;42.130;24.762;2023-07-28T12:57:43;99531.19;;;33.33;20.83
28630;BME280;15817;42.130;24.762;2023-07-28T13:00:09;99520.78;;;33.27;21.09
28630;BME280;15817;42.130;24.762;2023-07-28T13:02:44;99523.47;;;33.19;20.92
28630;BME280;15817;42.130;24.762;2023-07-28T13:05:13;99515.75;;;33.22;21.67
28630;BME280;15817;42.130;24.762;2023-07-28T13:07:40;99508.88;;;33.26;21.17
28630;BME280;15817;42.130;24.762;2023-07-28T13:10:09;99510.31;;;33.30;21.95
28630;BME280;15817;42.130;24.762;2023-07-28T13:12:36;99518.63;;;33.38;21.17
28630;BME280;15817;42.130;24.762;2023-07-28T13:15:03;99510.88;;;33.42;21.58
28630;BME280;15817;42.130;24.762;2023-07-28T13:17:29;99509.91;;;33.25;20.86
28630;BME280;15817;42.130;24.762;2023-07-28T13:19:58;99514.41;;;33.26;21.34
28630;BME280;15817;42.130;24.762;2023-07-28T13:22:27;99498.88;;;33.25;21.58